Terminal Aerodrome Forecast
Issued by NWS Pocatello, ID

Home | Current Version | Previous Version | Text Only | Print | Product List | Glossary On
Versions: 1 2 3 4 5 6 7 8 9 10 11 12 13 14
000
FTUS45 KPIH 041733
TAFIDA
TAF
KIDA 041733Z 0418/0518 20011KT P6SM FEW080 BKN200
     FM041900 20012G18KT P6SM SCT080 SCT120 BKN200
     FM042200 21018G28KT P6SM VCTS BKN080CB BKN120
     FM050400 19011KT P6SM VCSH SCT110 BKN150
     FM051500 20012G22KT P6SM BKN110=

USA.gov is the U.S. government's official web portal to all federal, state and local government web resources and services.